createdAt,value
2017-10-16T00:00:30.964Z,4.53
2017-10-16T00:02:59.625Z,3.87
2017-10-16T00:05:28.604Z,3.67
2017-10-16T00:07:57.786Z,3.63
2017-10-16T00:10:26.290Z,7.23
2017-10-16T00:12:55.584Z,4.13
2017-10-16T00:15:24.684Z,4.80
2017-10-16T00:17:53.725Z,4.07
2017-10-16T00:20:22.144Z,3.53
2017-10-16T00:22:50.384Z,6.90
2017-10-16T00:25:18.804Z,4.70
2017-10-16T00:27:47.204Z,3.77
2017-10-16T00:30:16.484Z,4.07
2017-10-16T00:32:44.544Z,4.53
2017-10-16T00:35:13.645Z,3.40
2017-10-16T00:37:42.024Z,3.80
2017-10-16T00:40:10.484Z,6.33
2017-10-16T00:42:38.984Z,5.33
2017-10-16T00:45:07.843Z,3.87
2017-10-16T00:47:36.343Z,8.40
2017-10-16T00:50:04.964Z,6.60
2017-10-16T00:52:34.364Z,3.37
2017-10-16T00:55:03.444Z,4.77
2017-10-16T00:57:32.823Z,5.43
2017-10-16T01:00:01.284Z,4.50
2017-10-16T01:02:29.704Z,3.97
2017-10-16T01:04:59.024Z,7.20
2017-10-16T01:07:27.524Z,4.20
2017-10-16T01:09:55.964Z,3.20
2017-10-16T01:12:24.425Z,4.30
2017-10-16T01:14:54.203Z,3.93
2017-10-16T01:17:22.644Z,4.90
2017-10-16T01:19:51.703Z,3.00
2017-10-16T01:22:20.207Z,4.63
2017-10-16T01:24:48.684Z,3.80
2017-10-16T01:27:16.943Z,4.30
2017-10-16T01:29:45.643Z,3.60
2017-10-16T01:32:14.084Z,3.73
2017-10-16T01:34:42.504Z,7.33
2017-10-16T01:37:10.924Z,4.10
2017-10-16T01:39:39.250Z,4.37
2017-10-16T01:42:07.604Z,3.43
2017-10-16T01:44:36.024Z,4.00
2017-10-16T01:47:05.104Z,4.07
2017-10-16T01:49:33.712Z,2.97
2017-10-16T01:52:02.764Z,3.63
2017-10-16T01:54:31.264Z,3.40
2017-10-16T01:56:59.843Z,3.73
2017-10-16T01:59:29.386Z,5.13
2017-10-16T02:01:57.492Z,3.10
2017-10-16T02:04:26.004Z,5.43
2017-10-16T02:06:54.584Z,6.30
2017-10-16T02:09:23.269Z,4.13
2017-10-16T02:11:51.424Z,3.90
2017-10-16T02:14:19.824Z,3.30
2017-10-16T02:16:48.124Z,3.90
2017-10-16T02:19:17.183Z,3.43
2017-10-16T02:21:45.667Z,5.70
2017-10-16T02:24:14.144Z,2.60
2017-10-16T02:26:42.464Z,6.77
2017-10-16T02:29:10.903Z,2.87
2017-10-16T02:31:38.944Z,2.87
2017-10-16T02:34:07.304Z,3.33
2017-10-16T02:36:35.504Z,3.30
2017-10-16T02:39:03.804Z,4.60
2017-10-16T02:41:32.084Z,5.73
2017-10-16T02:44:00.363Z,3.10
2017-10-16T02:46:28.624Z,3.00
2017-10-16T02:48:56.804Z,3.07
2017-10-16T02:51:25.184Z,4.83
2017-10-16T02:53:53.343Z,4.43
2017-10-16T02:56:21.523Z,3.70
2017-10-16T02:58:49.924Z,3.07
2017-10-16T03:01:19.183Z,4.00
2017-10-16T03:03:47.903Z,9.63
2017-10-16T03:06:17.184Z,3.03
2017-10-16T03:08:45.443Z,3.20
2017-10-16T03:11:14.044Z,3.83
2017-10-16T03:13:42.610Z,5.57
2017-10-16T03:16:11.124Z,6.10
2017-10-16T03:18:40.303Z,4.77
2017-10-16T03:21:08.584Z,3.60
2017-10-16T03:23:36.784Z,5.00
2017-10-16T03:26:04.884Z,7.37
2017-10-16T03:28:33.304Z,5.37
2017-10-16T03:31:01.765Z,3.70
2017-10-16T03:33:30.183Z,5.03
2017-10-16T03:35:59.224Z,4.40
2017-10-16T03:38:27.332Z,4.13
2017-10-16T03:40:55.784Z,6.87
2017-10-16T03:43:24.284Z,5.30
2017-10-16T03:45:52.544Z,4.67
2017-10-16T03:48:20.986Z,3.03
2017-10-16T03:50:49.424Z,4.70
2017-10-16T03:53:17.684Z,3.10
2017-10-16T03:55:45.763Z,5.63
2017-10-16T03:58:14.143Z,8.37
2017-10-16T04:00:42.423Z,4.03
2017-10-16T04:03:10.904Z,3.73
2017-10-16T04:05:39.285Z,7.50
2017-10-16T04:08:07.344Z,4.20
2017-10-16T04:10:35.943Z,5.00
2017-10-16T04:13:05.344Z,5.40
2017-10-16T04:15:33.484Z,6.07
2017-10-16T04:18:01.883Z,3.60
2017-10-16T04:20:30.104Z,4.43
2017-10-16T04:22:58.964Z,5.00
2017-10-16T04:25:28.064Z,5.60
2017-10-16T04:27:56.544Z,3.53
2017-10-16T04:30:25.744Z,8.63
2017-10-16T04:32:54.984Z,8.30
2017-10-16T04:35:23.404Z,6.67
2017-10-16T04:37:52.804Z,13.20
2017-10-16T04:40:21.003Z,6.77
2017-10-16T04:42:49.143Z,3.80
2017-10-16T04:45:17.604Z,10.97
2017-10-16T04:47:45.911Z,8.73
2017-10-16T04:50:15.204Z,3.93
2017-10-16T04:52:43.443Z,4.10
2017-10-16T04:55:11.753Z,9.52
2017-10-16T04:57:40.930Z,5.72
2017-10-16T05:00:09.229Z,5.60
2017-10-16T05:02:37.393Z,3.60
2017-10-16T05:05:05.793Z,5.22
2017-10-16T05:07:34.873Z,8.80
2017-10-16T05:10:03.153Z,6.90
2017-10-16T05:12:32.133Z,5.32
2017-10-16T05:15:00.713Z,4.40
2017-10-16T05:17:29.333Z,4.70
2017-10-16T05:19:57.693Z,8.57
2017-10-16T05:22:27.033Z,7.87
2017-10-16T05:24:55.230Z,7.70
2017-10-16T05:27:23.530Z,4.20
2017-10-16T05:29:51.629Z,5.60
2017-10-16T05:32:19.950Z,5.32
2017-10-16T05:34:48.470Z,27.37
2017-10-16T05:37:17.629Z,4.85
2017-10-16T05:39:45.970Z,4.77
2017-10-16T05:42:14.646Z,7.20
2017-10-16T05:44:43.050Z,6.60
2017-10-16T05:47:11.590Z,10.40
2017-10-16T05:49:40.793Z,9.98
2017-10-16T05:52:09.870Z,8.23
2017-10-16T05:54:38.049Z,10.10
2017-10-16T05:57:06.848Z,9.33
2017-10-16T05:59:35.788Z,7.70
2017-10-16T06:02:04.628Z,6.20
2017-10-16T06:04:33.948Z,10.10
2017-10-16T06:07:02.488Z,8.23
2017-10-16T06:09:31.069Z,8.03
2017-10-16T06:11:59.707Z,9.27
2017-10-16T06:14:28.149Z,6.10
2017-10-16T06:16:57.388Z,6.60
2017-10-16T06:19:25.928Z,11.90
2017-10-16T06:21:55.010Z,8.47
2017-10-16T06:24:23.288Z,7.62
2017-10-16T06:26:51.744Z,7.93
2017-10-16T06:29:20.149Z,8.93
2017-10-16T06:31:48.448Z,13.20
2017-10-16T06:34:17.730Z,7.13
2017-10-16T06:36:46.807Z,8.70
2017-10-16T06:39:15.408Z,6.53
2017-10-16T06:41:43.688Z,6.67
2017-10-16T06:44:12.809Z,12.80
2017-10-16T06:46:41.053Z,9.93
2017-10-16T06:49:10.159Z,10.60
2017-10-16T06:51:39.479Z,7.90
2017-10-16T06:54:07.800Z,13.73
2017-10-16T06:56:36.198Z,8.43
2017-10-16T06:59:04.387Z,8.87
2017-10-16T07:01:33.379Z,7.68
2017-10-16T07:04:02.439Z,12.00
2017-10-16T07:06:30.755Z,15.57
2017-10-16T07:08:59.180Z,8.43
2017-10-16T07:11:27.698Z,10.15
2017-10-16T07:13:55.966Z,10.40
2017-10-16T07:16:24.566Z,9.48
2017-10-16T07:18:53.531Z,10.38
2017-10-16T07:21:21.911Z,14.13
2017-10-16T07:23:51.131Z,8.70
2017-10-16T07:26:20.431Z,10.77
2017-10-16T07:28:49.491Z,12.65
2017-10-16T07:31:18.421Z,9.30
2017-10-16T07:33:47.610Z,11.73
2017-10-16T07:36:16.690Z,8.05
2017-10-16T07:38:45.850Z,9.63
2017-10-16T07:41:14.351Z,8.30
2017-10-16T07:43:42.678Z,6.90
2017-10-16T07:46:12.051Z,9.83
2017-10-16T07:48:40.713Z,15.13
2017-10-16T07:51:09.310Z,10.40
2017-10-16T07:53:38.190Z,14.05
2017-10-16T07:56:06.691Z,10.13
2017-10-16T07:58:35.531Z,8.80
2017-10-16T08:01:04.770Z,12.00
2017-10-16T08:03:33.030Z,14.03
2017-10-16T08:06:01.332Z,8.90
2017-10-16T08:08:30.411Z,9.77
2017-10-16T08:10:58.790Z,11.90
2017-10-16T08:13:27.138Z,10.90
2017-10-16T08:15:55.351Z,10.87
2017-10-16T08:18:23.431Z,6.17
2017-10-16T08:20:52.411Z,5.60
2017-10-16T08:23:20.790Z,5.83
2017-10-16T08:25:49.071Z,8.40
2017-10-16T08:28:17.513Z,13.13
2017-10-16T08:30:45.791Z,10.97
2017-10-16T08:33:14.511Z,6.60
2017-10-16T08:35:42.891Z,8.13
2017-10-16T08:38:12.093Z,6.30
2017-10-16T08:40:41.291Z,13.10
2017-10-16T08:43:10.830Z,15.27
2017-10-16T08:45:39.551Z,15.30
2017-10-16T08:48:08.147Z,15.80
2017-10-16T08:50:36.454Z,19.30
2017-10-16T08:53:05.928Z,19.23
2017-10-16T08:55:34.050Z,20.73
2017-10-16T08:58:02.913Z,21.90
2017-10-16T09:00:33.020Z,16.13
2017-10-16T09:03:02.319Z,14.90
2017-10-16T09:05:31.520Z,14.10
2017-10-16T09:08:00.600Z,15.50
2017-10-16T09:10:28.699Z,17.03
2017-10-16T09:12:58.078Z,17.57
2017-10-16T09:15:27.379Z,21.87
2017-10-16T09:17:55.859Z,19.13
2017-10-16T09:20:24.098Z,22.57
2017-10-16T09:22:52.420Z,21.63
2017-10-16T09:25:21.614Z,19.00
2017-10-16T09:27:50.918Z,21.50
2017-10-16T09:30:19.875Z,21.07
2017-10-16T09:32:48.194Z,19.90
2017-10-16T09:35:16.855Z,20.93
2017-10-16T09:37:45.255Z,23.83
2017-10-16T09:40:14.435Z,20.40
2017-10-16T09:42:42.827Z,21.43
2017-10-16T09:45:11.994Z,19.50
2017-10-16T09:47:40.519Z,20.27
2017-10-16T09:50:09.695Z,30.10
2017-10-16T09:52:39.235Z,22.30
2017-10-16T09:55:07.634Z,21.93
2017-10-16T09:57:36.156Z,23.50
2017-10-16T10:00:04.435Z,20.17
2017-10-16T10:02:33.415Z,21.43
2017-10-16T10:05:02.015Z,21.90
2017-10-16T10:07:31.534Z,24.00
2017-10-16T10:09:59.875Z,25.30
2017-10-16T10:12:28.534Z,20.70
2017-10-16T10:14:57.055Z,20.97
2017-10-16T10:17:26.234Z,19.50
2017-10-16T10:19:54.614Z,22.73
2017-10-16T10:22:23.074Z,18.80
2017-10-16T10:24:51.479Z,22.37
2017-10-16T10:27:19.855Z,21.83
2017-10-16T10:29:48.435Z,20.63
2017-10-16T10:32:17.141Z,18.67
2017-10-16T10:34:46.114Z,19.47
2017-10-16T10:37:14.395Z,19.00
2017-10-16T10:39:42.561Z,21.23
2017-10-16T10:42:10.841Z,22.60
2017-10-16T10:44:39.822Z,19.97
2017-10-16T10:47:08.201Z,20.60
2017-10-16T10:49:36.443Z,21.37
2017-10-16T10:52:04.563Z,20.60
2017-10-16T10:54:34.382Z,20.47
2017-10-16T10:57:03.702Z,19.77
2017-10-16T10:59:31.922Z,20.20
2017-10-16T11:02:00.210Z,19.33
2017-10-16T11:04:29.341Z,21.20
2017-10-16T11:06:58.505Z,19.90
2017-10-16T11:09:26.826Z,24.17
2017-10-16T11:11:55.167Z,19.70
2017-10-16T11:14:23.407Z,23.57
2017-10-16T11:16:51.926Z,20.97
2017-10-16T11:19:20.187Z,20.30
2017-10-16T11:21:48.537Z,21.53
2017-10-16T11:24:17.150Z,21.83
2017-10-16T11:26:45.629Z,20.93
2017-10-16T11:29:14.108Z,21.70
2017-10-16T11:31:42.409Z,22.20
2017-10-16T11:34:11.388Z,22.03
2017-10-16T11:36:39.789Z,23.67
2017-10-16T11:39:08.970Z,21.53
2017-10-16T11:41:37.110Z,21.30
2017-10-16T11:44:05.519Z,21.57
2017-10-16T11:46:34.818Z,19.93
2017-10-16T11:49:03.867Z,21.00
2017-10-16T11:51:32.338Z,21.67
2017-10-16T11:54:00.818Z,19.90
2017-10-16T11:56:29.437Z,22.30
2017-10-16T11:58:57.918Z,22.60
2017-10-16T12:01:26.608Z,20.40
2017-10-16T12:03:55.818Z,22.07
2017-10-16T12:06:24.278Z,21.00
2017-10-16T12:08:52.798Z,21.37
2017-10-16T12:11:21.898Z,22.27
2017-10-16T12:13:51.019Z,21.57
2017-10-16T12:16:19.637Z,23.23
2017-10-16T12:18:47.978Z,20.27
2017-10-16T12:21:16.297Z,21.80
2017-10-16T12:23:44.459Z,21.73
2017-10-16T12:26:13.678Z,21.87
2017-10-16T12:28:43.162Z,23.23
2017-10-16T12:31:11.557Z,21.87
2017-10-16T12:33:40.040Z,23.33
2017-10-16T12:36:08.439Z,23.10
2017-10-16T12:38:37.437Z,20.77
2017-10-16T12:41:05.878Z,20.33
2017-10-16T12:43:34.158Z,21.17
2017-10-16T12:46:03.618Z,22.30
2017-10-16T12:48:32.458Z,21.03
2017-10-16T12:51:01.138Z,20.70
2017-10-16T12:53:30.437Z,21.67
2017-10-16T12:55:58.981Z,22.47
2017-10-16T12:58:27.298Z,22.10
2017-10-16T13:00:56.498Z,21.77
2017-10-16T13:03:25.698Z,23.47
2017-10-16T13:05:54.880Z,22.20
2017-10-16T13:08:23.558Z,22.97
2017-10-16T13:10:52.158Z,22.27
2017-10-16T13:13:21.358Z,22.00
2017-10-16T13:15:50.558Z,39.30
2017-10-16T13:18:19.138Z,22.00
2017-10-16T13:20:48.177Z,22.87
2017-10-16T13:23:16.798Z,21.90
2017-10-16T13:25:45.398Z,21.03
2017-10-16T13:28:13.660Z,22.60
2017-10-16T13:30:42.038Z,24.00
2017-10-16T13:33:10.738Z,22.57
2017-10-16T13:35:39.317Z,23.60
2017-10-16T13:38:07.619Z,21.53
2017-10-16T13:40:36.079Z,24.30
2017-10-16T13:43:05.258Z,21.60
2017-10-16T13:45:33.637Z,21.67
2017-10-16T13:48:02.017Z,21.37
2017-10-16T13:50:30.297Z,39.97
2017-10-16T13:52:58.698Z,20.37
2017-10-16T13:55:28.505Z,23.07
2017-10-16T13:58:05.791Z,17.17
2017-10-16T14:00:47.586Z,17.20
2017-10-16T14:03:18.035Z,16.00
2017-10-16T14:05:46.455Z,12.63
2017-10-16T14:08:15.034Z,14.83
2017-10-16T14:10:43.206Z,23.20
2017-10-16T14:13:11.496Z,16.40
2017-10-16T14:15:40.085Z,14.60
2017-10-16T14:18:08.453Z,14.00
2017-10-16T14:20:37.036Z,10.73
2017-10-16T14:23:05.326Z,11.33
2017-10-16T14:25:35.218Z,13.10
2017-10-16T14:28:03.607Z,13.30
2017-10-16T14:30:32.413Z,16.83
2017-10-16T14:33:01.414Z,14.40
2017-10-16T14:35:30.692Z,9.30
2017-10-16T14:37:59.593Z,8.20
2017-10-16T14:40:28.673Z,7.30
2017-10-16T14:42:57.472Z,8.40
2017-10-16T14:45:26.555Z,8.80
2017-10-16T14:47:55.257Z,9.67
2017-10-16T14:50:24.634Z,13.23
2017-10-16T14:52:52.821Z,9.90
2017-10-16T14:55:22.657Z,12.40
2017-10-16T14:57:52.681Z,11.40
2017-10-16T15:00:22.036Z,15.97
2017-10-16T15:02:50.314Z,13.50
2017-10-16T15:05:18.589Z,19.70
2017-10-16T15:07:47.056Z,15.70
2017-10-16T15:10:15.525Z,20.17
2017-10-16T15:12:43.834Z,16.13
2017-10-16T15:15:12.395Z,15.23
2017-10-16T15:17:40.854Z,9.87
2017-10-16T15:20:09.693Z,11.13
2017-10-16T15:22:38.893Z,12.80
2017-10-16T15:25:08.215Z,11.53
2017-10-16T15:27:36.933Z,10.23
2017-10-16T15:30:05.353Z,9.00
2017-10-16T15:32:34.035Z,6.83
2017-10-16T15:35:03.234Z,8.13
2017-10-16T15:37:31.613Z,11.00
2017-10-16T15:40:00.494Z,7.20
2017-10-16T15:42:29.193Z,7.50
2017-10-16T15:44:57.694Z,15.33
2017-10-16T15:47:26.454Z,17.20
2017-10-16T15:49:55.334Z,16.67
2017-10-16T15:52:23.793Z,18.37
2017-10-16T15:54:52.254Z,17.77
2017-10-16T15:57:21.034Z,25.47
2017-10-16T15:59:49.756Z,21.10
2017-10-16T16:02:18.055Z,20.90
2017-10-16T16:04:47.355Z,28.57
2017-10-16T16:07:16.594Z,22.77
2017-10-16T16:09:44.934Z,18.60
2017-10-16T16:12:14.342Z,9.60
2017-10-16T16:14:43.634Z,11.10
2017-10-16T16:17:13.113Z,7.33
2017-10-16T16:19:41.614Z,9.30
2017-10-16T16:22:09.892Z,9.13
2017-10-16T16:24:38.175Z,7.63
2017-10-16T16:27:07.252Z,9.40
2017-10-16T16:29:35.854Z,9.97
2017-10-16T16:32:05.072Z,10.43
2017-10-16T16:34:33.771Z,8.13
2017-10-16T16:37:02.312Z,7.50
2017-10-16T16:39:31.612Z,6.83
2017-10-16T16:42:01.212Z,12.97
2017-10-16T16:44:30.511Z,10.07
2017-10-16T16:46:59.071Z,8.13
2017-10-16T16:49:27.705Z,8.20
2017-10-16T16:51:57.072Z,7.43
2017-10-16T16:54:25.532Z,7.37
2017-10-16T16:56:54.132Z,7.00
2017-10-16T16:59:22.933Z,7.33
2017-10-16T17:01:52.331Z,7.67
2017-10-16T17:04:20.752Z,8.77
2017-10-16T17:06:49.272Z,12.10
2017-10-16T17:09:17.413Z,7.03
2017-10-16T17:11:45.952Z,7.60
2017-10-16T17:14:14.152Z,8.13
2017-10-16T17:16:42.472Z,11.63
2017-10-16T17:19:10.832Z,10.07
2017-10-16T17:21:39.354Z,10.30
2017-10-16T17:24:07.761Z,17.33
2017-10-16T17:26:36.233Z,10.13
2017-10-16T17:29:05.331Z,10.77
2017-10-16T17:31:34.712Z,10.33
2017-10-16T17:34:03.153Z,10.97
2017-10-16T17:36:31.474Z,11.40
2017-10-16T17:39:00.552Z,9.40
2017-10-16T17:41:28.952Z,6.87
2017-10-16T17:43:58.273Z,7.73
2017-10-16T17:46:26.932Z,8.60
2017-10-16T17:48:55.392Z,18.70
2017-10-16T17:51:23.992Z,10.43
2017-10-16T17:53:52.514Z,9.67
2017-10-16T17:56:20.960Z,11.93
2017-10-16T17:58:50.332Z,9.47
2017-10-16T18:01:18.932Z,8.53
2017-10-16T18:03:47.533Z,10.03
2017-10-16T18:06:16.592Z,11.20
2017-10-16T18:08:45.073Z,11.00
2017-10-16T18:11:13.654Z,9.33
2017-10-16T18:13:41.979Z,10.40
2017-10-16T18:16:10.213Z,10.07
2017-10-16T18:18:38.692Z,15.93
2017-10-16T18:21:07.232Z,12.27
2017-10-16T18:23:35.673Z,13.53
2017-10-16T18:26:04.954Z,17.63
2017-10-16T18:28:33.273Z,12.70
2017-10-16T18:31:01.812Z,13.23
2017-10-16T18:33:30.133Z,12.47
2017-10-16T18:35:58.372Z,14.77
2017-10-16T18:38:26.879Z,13.90
2017-10-16T18:40:56.173Z,20.53
2017-10-16T18:43:25.553Z,12.67
2017-10-16T18:45:54.034Z,13.20
2017-10-16T18:48:22.432Z,11.00
2017-10-16T18:50:52.054Z,14.33
2017-10-16T18:53:21.333Z,14.20
2017-10-16T18:55:50.512Z,16.83
2017-10-16T18:58:19.233Z,10.20
2017-10-16T19:00:47.573Z,11.30
2017-10-16T19:03:15.935Z,13.33
2017-10-16T19:05:44.129Z,10.87
2017-10-16T19:08:12.628Z,10.60
2017-10-16T19:10:41.795Z,11.20
2017-10-16T19:13:10.088Z,9.97
2017-10-16T19:15:39.592Z,10.30
2017-10-16T19:18:07.956Z,7.67
2017-10-16T19:20:36.451Z,8.10
2017-10-16T19:23:04.832Z,8.00
2017-10-16T19:25:33.211Z,9.97
2017-10-16T19:28:02.632Z,8.57
2017-10-16T19:30:31.091Z,9.43
2017-10-16T19:33:00.172Z,10.27
2017-10-16T19:35:28.671Z,7.83
2017-10-16T19:37:58.278Z,11.93
2017-10-16T19:40:27.573Z,8.27
2017-10-16T19:42:56.252Z,11.10
2017-10-16T19:45:24.593Z,12.83
2017-10-16T19:47:53.034Z,10.53
2017-10-16T19:50:21.592Z,8.53
2017-10-16T19:52:50.111Z,9.77
2017-10-16T19:55:18.572Z,9.43
2017-10-16T19:57:47.614Z,14.60
2017-10-16T20:00:16.152Z,7.03
2017-10-16T20:02:44.515Z,9.87
2017-10-16T20:05:14.013Z,9.40
2017-10-16T20:07:43.392Z,9.70
2017-10-16T20:10:11.938Z,13.93
2017-10-16T20:12:40.511Z,9.40
2017-10-16T20:15:09.012Z,10.10
2017-10-16T20:17:37.291Z,9.10
2017-10-16T20:20:05.973Z,9.70
2017-10-16T20:22:34.332Z,12.47
2017-10-16T20:25:02.972Z,12.20
2017-10-16T20:27:31.492Z,9.90
2017-10-16T20:29:59.733Z,9.63
2017-10-16T20:32:28.213Z,9.33
2017-10-16T20:34:56.634Z,11.47
2017-10-16T20:37:24.913Z,11.20
2017-10-16T20:39:53.412Z,16.10
2017-10-16T20:42:21.853Z,10.83
2017-10-16T20:44:50.093Z,12.03
2017-10-16T20:47:18.452Z,9.30
2017-10-16T20:49:47.158Z,11.30
2017-10-16T20:52:16.253Z,11.37
2017-10-16T20:54:44.533Z,9.90
2017-10-16T20:57:13.033Z,10.60
2017-10-16T20:59:42.172Z,9.53
2017-10-16T21:02:10.373Z,8.53
2017-10-16T21:04:39.072Z,8.50
2017-10-16T21:07:07.473Z,8.33
2017-10-16T21:09:36.992Z,7.87
2017-10-16T21:12:05.394Z,9.40
2017-10-16T21:14:34.071Z,8.67
2017-10-16T21:17:02.532Z,9.40
2017-10-16T21:19:31.171Z,8.83
2017-10-16T21:21:59.569Z,11.83
2017-10-16T21:24:28.749Z,8.30
2017-10-16T21:26:57.128Z,8.70
2017-10-16T21:29:26.528Z,8.27
2017-10-16T21:31:54.708Z,10.27
2017-10-16T21:34:23.190Z,8.80
2017-10-16T21:36:51.548Z,8.97
2017-10-16T21:39:19.936Z,11.30
2017-10-16T21:41:49.030Z,9.73
2017-10-16T21:44:18.728Z,11.47
2017-10-16T21:46:47.130Z,10.77
2017-10-16T21:49:15.728Z,10.03
2017-10-16T21:51:44.967Z,11.93
2017-10-16T21:54:13.688Z,17.80
2017-10-16T21:56:42.948Z,10.93
2017-10-16T21:59:11.387Z,13.90
2017-10-16T22:01:40.467Z,10.20
2017-10-16T22:04:08.848Z,12.40
2017-10-16T22:06:37.170Z,56.50
2017-10-16T22:09:05.548Z,11.77
2017-10-16T22:11:34.288Z,14.90
2017-10-16T22:14:02.548Z,10.03
2017-10-16T22:16:31.007Z,9.77
2017-10-16T22:18:59.487Z,10.70
2017-10-16T22:21:27.788Z,10.83
2017-10-16T22:23:56.448Z,12.37
2017-10-16T22:26:25.068Z,13.33
2017-10-16T22:28:53.548Z,15.30
2017-10-16T22:31:21.908Z,11.27
2017-10-16T22:33:50.531Z,10.87
2017-10-16T22:36:18.768Z,13.00
2017-10-16T22:38:47.468Z,11.10
2017-10-16T22:41:15.810Z,9.97
2017-10-16T22:43:44.227Z,14.07
2017-10-16T22:46:13.305Z,12.07
2017-10-16T22:48:43.410Z,13.00
2017-10-16T22:51:11.611Z,10.77
2017-10-16T22:53:40.577Z,9.73
2017-10-16T22:56:09.494Z,12.57
2017-10-16T22:58:39.186Z,11.85
2017-10-16T23:01:07.768Z,12.52
2017-10-16T23:03:35.946Z,12.37
2017-10-16T23:06:04.954Z,12.52
2017-10-16T23:08:34.114Z,11.12
2017-10-16T23:11:02.314Z,9.75
2017-10-16T23:13:30.678Z,9.07
2017-10-16T23:15:59.172Z,9.70
2017-10-16T23:18:27.553Z,10.20
2017-10-16T23:20:56.093Z,8.47
2017-10-16T23:23:24.612Z,16.75
2017-10-16T23:25:53.854Z,9.40
2017-10-16T23:28:22.301Z,8.00
2017-10-16T23:30:51.373Z,9.02
2017-10-16T23:33:20.293Z,7.93
2017-10-16T23:35:49.365Z,6.78
2017-10-16T23:38:17.507Z,8.82
2017-10-16T23:40:46.039Z,8.30
2017-10-16T23:43:15.258Z,7.50
2017-10-16T23:45:43.677Z,6.70
2017-10-16T23:48:12.125Z,7.07
2017-10-16T23:50:40.323Z,8.33
2017-10-16T23:53:08.757Z,6.93
2017-10-16T23:55:37.058Z,9.23
2017-10-16T23:58:05.280Z,8.00
